Time;durP1;ratioP1;P1;durP2;ratioP2;P2;SDS_P1;SDS_P2;PMS_P1;PMS_P2;Temp;Humidity;BMP_temperature;BMP_pressure;BME280_temperature;BME280_humidity;BME280_pressure;Samples;Min_cycle;Max_cycle;Signal;HPM_P1;HPM_P2
2023/09/18 00:00:05;;;;;;;107.05;57.55;;;22.10;93.10;;;;;;4992562;28;93755;-46
2023/09/18 00:02:31;;;;;;;106.68;57.17;;;22.10;92.40;;;;;;4985958;28;90241;-46
2023/09/18 00:04:57;;;;;;;105.63;56.50;;;22.10;92.30;;;;;;4983840;28;91037;-46
2023/09/18 00:07:22;;;;;;;107.28;57.72;;;22.00;92.50;;;;;;4989644;28;92025;-48
2023/09/18 00:09:48;;;;;;;107.30;56.70;;;22.00;92.70;;;;;;4983510;28;90365;-46
2023/09/18 00:12:14;;;;;;;106.45;57.20;;;22.00;92.20;;;;;;4987902;28;90389;-46
2023/09/18 00:14:41;;;;;;;107.63;57.72;;;22.00;92.70;;;;;;4987528;28;89922;-46
2023/09/18 00:17:07;;;;;;;106.32;57.30;;;22.00;92.60;;;;;;4992786;28;91365;-46
2023/09/18 00:19:33;;;;;;;106.55;57.10;;;22.00;92.40;;;;;;4982978;28;91649;-46
2023/09/18 00:22:00;;;;;;;107.22;57.40;;;22.00;92.30;;;;;;4991433;28;91984;-46
2023/09/18 00:24:27;;;;;;;105.90;57.15;;;22.00;92.70;;;;;;4987274;28;89537;-47
2023/09/18 00:26:52;;;;;;;106.05;56.33;;;21.90;93.50;;;;;;4995793;28;90080;-46
2023/09/18 00:29:18;;;;;;;105.53;56.65;;;21.90;92.20;;;;;;4989146;28;90615;-46
2023/09/18 00:31:44;;;;;;;106.28;56.80;;;21.90;92.60;;;;;;4990288;28;92756;-46
2023/09/18 00:34:10;;;;;;;105.43;56.85;;;21.90;92.60;;;;;;4986621;28;93259;-47
2023/09/18 00:36:35;;;;;;;106.05;56.88;;;21.90;92.60;;;;;;4989855;28;93408;-46
2023/09/18 00:39:01;;;;;;;107.22;57.58;;;21.90;93.00;;;;;;4983999;28;89756;-46
2023/09/18 00:41:27;;;;;;;106.00;56.95;;;21.80;93.00;;;;;;4987681;28;90457;-47
2023/09/18 00:43:54;;;;;;;105.75;56.78;;;21.80;92.80;;;;;;4972000;28;93710;-49
2023/09/18 00:46:20;;;;;;;106.05;56.63;;;21.80;92.90;;;;;;4970545;28;89756;-46
2023/09/18 00:48:46;;;;;;;107.20;57.67;;;21.80;92.80;;;;;;4989121;28;91333;-49
2023/09/18 00:51:13;;;;;;;106.78;56.50;;;21.80;93.20;;;;;;4987987;28;89526;-48
2023/09/18 00:53:43;;;;;;;105.47;56.55;;;21.80;93.30;;;;;;4987322;28;95033;-46
2023/09/18 00:56:10;;;;;;;106.15;56.15;;;21.70;92.90;;;;;;4983305;28;92941;-45
2023/09/18 00:58:36;;;;;;;106.90;57.13;;;21.70;93.20;;;;;;4990601;28;90172;-47
2023/09/18 01:01:04;;;;;;;106.57;57.17;;;21.70;92.90;;;;;;4983428;28;90048;-48
2023/09/18 01:03:29;;;;;;;107.13;57.38;;;21.70;94.40;;;;;;4985432;28;90650;-47
2023/09/18 01:05:55;;;;;;;107.13;57.60;;;21.70;94.30;;;;;;4987332;28;92507;-47
2023/09/18 01:08:21;;;;;;;105.45;56.47;;;21.70;94.00;;;;;;4986307;28;89787;-47
2023/09/18 01:10:59;;;;;;;105.97;56.75;;;21.70;93.40;;;;;;4994184;28;89295;-46
2023/09/18 01:13:31;;;;;;;106.07;56.42;;;21.70;93.10;;;;;;4986040;28;94079;-46
2023/09/18 01:16:34;;;;;;;105.45;56.60;;;21.60;92.80;;;;;;4996442;28;90988;-46
2023/09/18 01:19:02;;;;;;;105.63;56.00;;;21.60;93.10;;;;;;4986485;28;91001;-46
2023/09/18 01:21:28;;;;;;;104.80;55.60;;;21.60;92.80;;;;;;4983675;28;91713;-47
2023/09/18 01:23:54;;;;;;;105.32;56.58;;;21.60;92.60;;;;;;4992351;28;89531;-47
2023/09/18 01:26:19;;;;;;;105.78;56.05;;;21.60;92.60;;;;;;4988915;28;90750;-48
2023/09/18 01:28:45;;;;;;;106.22;57.22;;;21.60;92.80;;;;;;4994111;28;89923;-49
2023/09/18 01:31:10;;;;;;;106.68;56.75;;;21.60;94.10;;;;;;4985602;28;90115;-49
2023/09/18 01:33:38;;;;;;;106.65;57.55;;;21.60;93.30;;;;;;4990295;28;89886;-47
2023/09/18 01:36:07;;;;;;;106.30;56.20;;;21.50;94.10;;;;;;4993685;28;89927;-46
2023/09/18 01:38:33;;;;;;;107.00;57.72;;;21.50;93.10;;;;;;4985766;28;92773;-47
2023/09/18 01:41:00;;;;;;;105.53;56.15;;;21.50;94.40;;;;;;4992945;28;89804;-46
2023/09/18 01:43:26;;;;;;;105.35;56.53;;;21.50;93.90;;;;;;4983979;28;90463;-47
2023/09/18 01:45:52;;;;;;;105.45;56.20;;;21.50;93.60;;;;;;4995678;28;90109;-48
2023/09/18 01:48:18;;;;;;;106.68;57.33;;;21.50;93.30;;;;;;4997456;28;89930;-46
2023/09/18 01:50:44;;;;;;;105.07;56.40;;;21.50;94.80;;;;;;4995108;28;91047;-50
2023/09/18 01:53:10;;;;;;;106.18;56.88;;;21.50;94.30;;;;;;4985996;28;94157;-47
2023/09/18 01:55:35;;;;;;;105.25;55.78;;;21.50;94.40;;;;;;4987880;28;89836;-47
2023/09/18 01:58:01;;;;;;;104.10;55.55;;;21.50;93.30;;;;;;4989300;28;93264;-48
2023/09/18 02:00:26;;;;;;;105.38;56.33;;;21.40;94.00;;;;;;4985845;28;92606;-46
2023/09/18 02:02:52;;;;;;;107.00;57.45;;;21.50;94.20;;;;;;4987833;28;89521;-46
2023/09/18 02:05:17;;;;;;;104.25;55.80;;;21.50;95.40;;;;;;4986824;28;89678;-46
2023/09/18 02:07:43;;;;;;;104.63;56.13;;;21.40;93.50;;;;;;4971874;28;90964;-48
2023/09/18 02:10:09;;;;;;;105.35;56.50;;;21.40;94.20;;;;;;4985267;28;93028;-46
2023/09/18 02:12:34;;;;;;;106.57;56.67;;;21.40;93.70;;;;;;4990374;28;89871;-46
2023/09/18 02:15:04;;;;;;;105.55;56.80;;;21.40;93.90;;;;;;4988248;28;90044;-48
2023/09/18 02:17:30;;;;;;;106.80;56.40;;;21.40;94.20;;;;;;4989050;28;89947;-46
2023/09/18 02:19:55;;;;;;;106.20;56.40;;;21.40;93.30;;;;;;4982504;28;92867;-46
2023/09/18 02:22:21;;;;;;;104.18;55.63;;;21.30;93.50;;;;;;4973634;28;89474;-46
2023/09/18 02:24:47;;;;;;;106.10;56.38;;;21.40;93.60;;;;;;4990948;28;89990;-46
2023/09/18 02:27:12;;;;;;;105.03;56.95;;;21.30;93.80;;;;;;4995801;28;89902;-46
2023/09/18 02:29:38;;;;;;;104.85;56.00;;;21.40;95.70;;;;;;4983382;28;89865;-46
2023/09/18 02:32:03;;;;;;;105.32;56.50;;;21.30;95.40;;;;;;4987374;28;90770;-47
2023/09/18 02:34:29;;;;;;;105.57;55.78;;;21.30;94.20;;;;;;4984945;28;90039;-46
2023/09/18 02:36:55;;;;;;;106.63;56.92;;;21.30;93.80;;;;;;4982551;28;93662;-45
2023/09/18 02:39:21;;;;;;;105.75;55.75;;;21.30;94.70;;;;;;4989816;28;89360;-48
2023/09/18 02:41:46;;;;;;;105.00;56.28;;;21.30;94.00;;;;;;4978568;28;91937;-47
2023/09/18 02:44:12;;;;;;;106.55;56.67;;;21.30;94.30;;;;;;4995826;28;90041;-46
2023/09/18 02:46:38;;;;;;;103.65;55.33;;;21.20;94.50;;;;;;4984712;28;91263;-48
2023/09/18 02:49:04;;;;;;;106.20;56.03;;;21.20;93.60;;;;;;4989700;28;88917;-47
2023/09/18 02:51:31;;;;;;;104.90;56.05;;;21.20;93.60;;;;;;4984156;28;89591;-46
2023/09/18 02:53:57;;;;;;;104.82;56.00;;;21.20;93.50;;;;;;4987692;28;90348;-46
2023/09/18 02:56:23;;;;;;;105.45;55.92;;;21.20;94.40;;;;;;4986041;28;91533;-46
2023/09/18 02:58:49;;;;;;;105.18;56.03;;;21.20;94.10;;;;;;4993171;28;89735;-47
2023/09/18 03:01:14;;;;;;;104.93;56.53;;;21.20;94.50;;;;;;4987711;28;89669;-47
2023/09/18 03:03:41;;;;;;;103.47;55.50;;;21.20;95.20;;;;;;4988500;28;89554;-46
2023/09/18 03:06:07;;;;;;;106.65;56.97;;;21.20;95.50;;;;;;4983321;28;89468;-45
2023/09/18 03:08:33;;;;;;;105.03;56.25;;;21.20;95.60;;;;;;4982815;28;91031;-47
2023/09/18 03:10:59;;;;;;;104.65;55.55;;;21.20;95.50;;;;;;4987768;28;89726;-46
2023/09/18 03:13:27;;;;;;;104.88;56.50;;;21.20;94.70;;;;;;4985030;28;91781;-47
2023/09/18 03:15:53;;;;;;;105.97;56.10;;;21.20;96.40;;;;;;4986933;28;92740;-47
2023/09/18 03:18:18;;;;;;;105.72;56.75;;;21.10;95.40;;;;;;4996189;28;91013;-46
2023/09/18 03:20:44;;;;;;;106.18;57.00;;;21.20;96.30;;;;;;4987824;28;90565;-47
2023/09/18 03:23:10;;;;;;;107.00;57.13;;;21.20;96.80;;;;;;4986388;28;91683;-47
2023/09/18 03:25:37;;;;;;;104.93;56.20;;;21.10;96.50;;;;;;4988261;28;90118;-46
2023/09/18 03:28:03;;;;;;;105.32;56.55;;;21.20;96.20;;;;;;4982814;28;91081;-47
2023/09/18 03:30:29;;;;;;;105.72;56.15;;;21.10;95.90;;;;;;4990467;28;91523;-46
2023/09/18 03:32:55;;;;;;;105.22;56.95;;;21.10;94.80;;;;;;4984889;28;92269;-46
2023/09/18 03:35:20;;;;;;;104.43;56.22;;;21.10;95.20;;;;;;4985747;28;90304;-46
2023/09/18 03:37:51;;;;;;;104.78;55.92;;;21.10;96.40;;;;;;4984354;28;89361;-49
2023/09/18 03:40:18;;;;;;;104.55;56.00;;;21.10;95.50;;;;;;4986078;28;89620;-49
2023/09/18 03:42:52;;;;;;;105.03;56.42;;;21.10;94.80;;;;;;4990829;28;89564;-51
2023/09/18 03:45:19;;;;;;;104.50;56.45;;;21.00;96.30;;;;;;4985972;28;93124;-47
2023/09/18 03:47:45;;;;;;;104.35;55.72;;;21.00;96.50;;;;;;4990498;28;89777;-48
2023/09/18 03:50:11;;;;;;;105.28;56.42;;;21.10;96.50;;;;;;4981947;28;90490;-50
2023/09/18 03:52:38;;;;;;;105.05;56.30;;;21.00;96.40;;;;;;4989247;28;91749;-50
2023/09/18 03:55:05;;;;;;;104.45;56.30;;;21.00;97.40;;;;;;4984419;28;90663;-51
2023/09/18 03:57:30;;;;;;;104.25;56.30;;;21.00;96.60;;;;;;4990399;28;91185;-48
2023/09/18 03:59:56;;;;;;;105.00;56.83;;;21.00;96.30;;;;;;4988041;28;92431;-49
2023/09/18 04:02:23;;;;;;;104.82;56.15;;;21.00;97.20;;;;;;4991449;28;89525;-48
2023/09/18 04:04:49;;;;;;;104.18;56.33;;;21.00;96.50;;;;;;4987998;28;92070;-48
2023/09/18 04:07:16;;;;;;;104.43;55.78;;;21.00;96.00;;;;;;4987264;28;89540;-47
2023/09/18 04:09:42;;;;;;;103.85;56.15;;;21.00;95.20;;;;;;4989256;28;91040;-49
2023/09/18 04:12:08;;;;;;;103.68;55.90;;;20.90;97.10;;;;;;4981654;28;91771;-47
2023/09/18 04:14:33;;;;;;;104.82;56.20;;;20.90;97.10;;;;;;4979102;22;90685;-88
2023/09/18 04:17:00;;;;;;;104.45;56.38;;;20.90;96.20;;;;;;4978392;28;90349;-87
2023/09/18 04:19:26;;;;;;;103.80;55.88;;;20.90;97.20;;;;;;4967054;28;88780;-87
2023/09/18 04:21:52;;;;;;;104.65;56.05;;;20.90;97.50;;;;;;4972981;28;92950;-90
2023/09/18 04:24:18;;;;;;;104.65;56.33;;;20.90;96.50;;;;;;4975829;28;89630;-87
2023/09/18 04:26:43;;;;;;;105.10;56.08;;;20.90;96.60;;;;;;4968010;28;92084;-86
2023/09/18 04:29:09;;;;;;;106.53;56.08;;;20.90;96.90;;;;;;4970457;28;89507;-87
2023/09/18 04:31:35;;;;;;;103.50;55.42;;;20.80;96.80;;;;;;4972591;28;91225;-89
2023/09/18 04:34:00;;;;;;;104.05;55.80;;;20.80;96.70;;;;;;4966774;28;92952;-86
2023/09/18 04:36:26;;;;;;;105.72;56.60;;;20.80;95.60;;;;;;4989695;28;90854;-88
2023/09/18 04:38:52;;;;;;;104.88;55.83;;;20.80;96.90;;;;;;4985483;28;94502;-87
2023/09/18 04:41:17;;;;;;;103.95;55.47;;;20.80;95.50;;;;;;4985602;22;90812;-42
2023/09/18 04:43:43;;;;;;;105.53;56.08;;;20.80;95.60;;;;;;4968564;28;94277;-42
2023/09/18 04:46:08;;;;;;;104.30;55.55;;;20.70;95.40;;;;;;4973717;28;90547;-41
2023/09/18 04:48:44;;;;;;;104.68;56.00;;;20.70;95.50;;;;;;4982316;22;90469;-78
2023/09/18 04:51:12;;;;;;;104.93;56.35;;;20.70;98.70;;;;;;4967030;28;90321;-81
2023/09/18 04:53:44;;;;;;;114.25;57.15;;;20.70;97.20;;;;;;4962848;28;90391;-78
2023/09/18 04:56:10;;;;;;;106.68;56.25;;;20.80;98.90;;;;;;4950186;28;89549;-77
2023/09/18 04:58:37;;;;;;;104.90;56.25;;;20.80;97.70;;;;;;4945444;28;92366;-76
2023/09/18 05:01:05;;;;;;;105.03;56.35;;;20.80;98.00;;;;;;4946635;28;89181;-76
2023/09/18 05:03:33;;;;;;;105.05;56.20;;;20.70;98.20;;;;;;4957261;28;89715;-79
2023/09/18 05:08:27;;;;;;;105.30;56.50;;;20.80;98.10;;;;;;4977531;28;89991;-42
2023/09/18 05:10:53;;;;;;;105.40;55.97;;;20.70;98.70;;;;;;4973591;28;89454;-44
2023/09/18 05:13:18;;;;;;;106.07;56.25;;;20.70;98.70;;;;;;4970083;28;89532;-43
2023/09/18 05:15:44;;;;;;;106.25;56.30;;;20.70;98.40;;;;;;4973062;28;91610;-42
2023/09/18 05:18:09;;;;;;;110.35;56.25;;;20.70;98.60;;;;;;4966157;28;90085;-42
2023/09/18 05:20:35;;;;;;;108.13;56.58;;;20.70;98.70;;;;;;4968845;28;91871;-42
2023/09/18 05:23:02;;;;;;;109.35;56.83;;;20.70;98.80;;;;;;4970806;28;93525;-42
2023/09/18 05:25:31;;;;;;;108.85;56.55;;;20.60;98.90;;;;;;4968028;28;91047;-42
2023/09/18 05:27:59;;;;;;;107.88;56.92;;;20.60;98.60;;;;;;4963823;28;89385;-42
2023/09/18 05:30:28;;;;;;;111.20;56.88;;;20.60;98.80;;;;;;4965494;28;92161;-42
2023/09/18 05:32:54;;;;;;;111.47;56.63;;;20.60;98.10;;;;;;4965545;28;89836;-42
2023/09/18 05:35:21;;;;;;;110.85;57.40;;;20.50;98.50;;;;;;4967866;28;90459;-44
2023/09/18 05:37:46;;;;;;;110.07;57.13;;;20.60;98.70;;;;;;4972192;28;90317;-41
2023/09/18 05:40:13;;;;;;;110.68;57.05;;;20.50;97.50;;;;;;4969702;28;89281;-44
2023/09/18 05:42:43;;;;;;;110.82;57.42;;;20.50;98.30;;;;;;4977027;28;90166;-41
2023/09/18 05:45:10;;;;;;;111.53;57.88;;;20.50;98.00;;;;;;4971708;28;91520;-42
2023/09/18 05:47:37;;;;;;;116.10;58.78;;;20.50;98.40;;;;;;4971225;28;91194;-43
2023/09/18 05:50:04;;;;;;;118.10;59.72;;;20.50;98.60;;;;;;4976948;28;90653;-43
2023/09/18 05:52:30;;;;;;;119.80;60.05;;;20.50;98.80;;;;;;4993262;28;90747;-42
2023/09/18 05:54:55;;;;;;;115.50;58.47;;;20.50;98.80;;;;;;4985462;28;90274;-45
2023/09/18 05:57:21;;;;;;;114.88;58.47;;;20.50;98.50;;;;;;4988282;28;89503;-46
2023/09/18 05:59:46;;;;;;;111.07;57.10;;;20.50;98.30;;;;;;4997069;28;89445;-43
2023/09/18 06:02:12;;;;;;;108.43;56.80;;;20.50;97.50;;;;;;4984458;28;91657;-42
2023/09/18 06:04:38;;;;;;;106.22;55.67;;;20.40;96.60;;;;;;4999088;28;91753;-44
2023/09/18 06:07:04;;;;;;;107.35;55.83;;;20.40;97.00;;;;;;4993472;27;91576;-45
2023/09/18 06:09:29;;;;;;;107.82;55.92;;;20.40;96.30;;;;;;5009645;27;89198;-42
2023/09/18 06:11:55;;;;;;;105.28;55.15;;;20.40;96.40;;;;;;5004298;27;90881;-43
2023/09/18 06:14:21;;;;;;;104.18;55.65;;;20.40;96.20;;;;;;5009355;27;89735;-42
2023/09/18 06:16:46;;;;;;;108.20;55.20;;;20.40;96.10;;;;;;5003493;27;92847;-45
2023/09/18 06:19:12;;;;;;;105.00;55.45;;;20.40;95.80;;;;;;5005063;27;90999;-43
2023/09/18 06:21:37;;;;;;;105.40;55.80;;;20.30;95.70;;;;;;4999877;27;92630;-42
2023/09/18 06:24:03;;;;;;;105.15;55.90;;;20.40;95.60;;;;;;5009323;27;90237;-42
2023/09/18 06:26:29;;;;;;;106.32;55.67;;;20.30;95.30;;;;;;5002697;27;94613;-42
2023/09/18 06:28:55;;;;;;;104.97;55.78;;;20.30;95.40;;;;;;5009842;27;89980;-43
2023/09/18 06:31:21;;;;;;;105.68;55.63;;;20.30;95.60;;;;;;5003412;27;90852;-45
2023/09/18 06:33:46;;;;;;;104.88;55.15;;;20.30;95.40;;;;;;5007148;27;90267;-42
2023/09/18 06:36:13;;;;;;;103.85;55.30;;;20.30;95.40;;;;;;5003291;27;91246;-43
2023/09/18 06:38:38;;;;;;;105.47;55.55;;;20.30;95.20;;;;;;5003952;27;89538;-43
2023/09/18 06:41:04;;;;;;;106.20;55.47;;;20.30;95.70;;;;;;5004263;27;92434;-43
2023/09/18 06:43:29;;;;;;;110.43;55.65;;;20.30;95.80;;;;;;5006272;27;89674;-42
2023/09/18 06:45:57;;;;;;;106.75;55.85;;;20.30;95.30;;;;;;5005633;27;89865;-46
2023/09/18 06:48:23;;;;;;;104.85;55.53;;;20.30;95.60;;;;;;5001392;27;90139;-42
2023/09/18 06:50:49;;;;;;;105.13;55.90;;;20.30;95.00;;;;;;5005850;27;89586;-44
2023/09/18 06:53:15;;;;;;;106.47;55.67;;;20.30;95.10;;;;;;5001423;27;93201;-43
2023/09/18 06:55:41;;;;;;;105.00;55.72;;;20.30;94.40;;;;;;5008274;27;89737;-43
2023/09/18 06:58:07;;;;;;;105.53;55.60;;;20.30;94.90;;;;;;4993749;27;90685;-43
2023/09/18 07:00:32;;;;;;;105.97;55.65;;;20.30;95.20;;;;;;5008105;27;90671;-45
2023/09/18 07:02:58;;;;;;;106.82;55.60;;;20.50;95.60;;;;;;5004827;27;91069;-44
2023/09/18 07:05:24;;;;;;;104.38;55.45;;;20.50;95.50;;;;;;5008183;27;90513;-43
2023/09/18 07:07:49;;;;;;;103.95;55.28;;;20.60;95.60;;;;;;5004089;27;90025;-42
2023/09/18 07:10:15;;;;;;;105.43;55.47;;;20.60;94.80;;;;;;5005515;27;89852;-43
2023/09/18 07:12:41;;;;;;;105.65;55.92;;;20.60;95.10;;;;;;5002181;27;89461;-43
2023/09/18 07:15:07;;;;;;;106.28;55.85;;;20.60;94.80;;;;;;5003540;27;93043;-42
2023/09/18 07:17:33;;;;;;;106.10;55.83;;;20.70;94.60;;;;;;5005824;27;91477;-43
2023/09/18 07:20:00;;;;;;;105.80;55.85;;;20.70;94.20;;;;;;4999796;27;89669;-44
2023/09/18 07:22:25;;;;;;;104.80;55.58;;;20.70;94.20;;;;;;5008176;27;89555;-42
2023/09/18 07:24:51;;;;;;;105.78;55.90;;;20.70;94.40;;;;;;5006574;27;90913;-43
2023/09/18 07:27:16;;;;;;;104.90;55.65;;;20.70;94.10;;;;;;5005511;27;91021;-42
2023/09/18 07:29:42;;;;;;;106.93;55.83;;;20.70;93.90;;;;;;5000599;27;90281;-43
2023/09/18 07:32:09;;;;;;;107.40;55.92;;;20.70;94.00;;;;;;4990717;27;89693;-42
2023/09/18 07:34:35;;;;;;;106.63;55.95;;;20.70;93.70;;;;;;4996169;27;92414;-43
2023/09/18 07:37:00;;;;;;;106.05;56.10;;;20.80;93.80;;;;;;5001465;27;91438;-42
2023/09/18 07:39:26;;;;;;;105.47;56.00;;;20.80;93.50;;;;;;5003819;27;92483;-43
2023/09/18 07:41:52;;;;;;;104.03;55.65;;;20.80;93.40;;;;;;5003284;27;92464;-42
2023/09/18 07:44:21;;;;;;;104.15;56.20;;;20.80;93.40;;;;;;5006382;27;89873;-42
2023/09/18 07:46:47;;;;;;;105.95;55.72;;;20.80;93.30;;;;;;5005956;27;90270;-43
2023/09/18 07:49:13;;;;;;;104.68;55.90;;;20.80;93.10;;;;;;5006116;27;91238;-43
2023/09/18 07:51:39;;;;;;;107.70;55.90;;;20.80;93.10;;;;;;5002540;27;91099;-42
2023/09/18 07:54:07;;;;;;;105.68;55.72;;;20.80;93.20;;;;;;5006163;27;90113;-44
2023/09/18 07:56:34;;;;;;;103.35;55.47;;;20.90;92.90;;;;;;4999039;27;93416;-43
2023/09/18 07:59:00;;;;;;;105.50;56.13;;;20.90;93.30;;;;;;5007213;27;92093;-43
2023/09/18 08:01:25;;;;;;;105.38;56.00;;;20.90;92.90;;;;;;5001516;27;92719;-42
2023/09/18 08:03:51;;;;;;;104.63;55.88;;;21.00;92.60;;;;;;5002112;27;89825;-44
2023/09/18 08:06:19;;;;;;;104.30;55.78;;;21.00;92.40;;;;;;5006016;27;93499;-42
2023/09/18 08:08:45;;;;;;;104.82;55.63;;;21.00;92.40;;;;;;5014893;27;90736;-43
2023/09/18 08:11:11;;;;;;;104.15;55.67;;;21.00;92.80;;;;;;5000848;27;90591;-43
2023/09/18 08:13:37;;;;;;;104.85;56.22;;;21.00;92.40;;;;;;5007513;27;90912;-43
2023/09/18 08:16:06;;;;;;;105.72;56.40;;;21.10;92.20;;;;;;5009592;27;89622;-42
2023/09/18 08:18:31;;;;;;;108.70;56.40;;;21.10;92.10;;;;;;5008175;27;90280;-43
2023/09/18 08:20:58;;;;;;;108.43;57.25;;;21.10;92.30;;;;;;5008235;27;93597;-44
2023/09/18 08:23:24;;;;;;;107.63;57.17;;;21.10;92.20;;;;;;5010190;27;89430;-42
2023/09/18 08:25:51;;;;;;;106.43;58.05;;;21.10;92.00;;;;;;5006501;27;90085;-44
2023/09/18 08:28:17;;;;;;;107.03;57.15;;;21.10;92.20;;;;;;5005371;27;90987;-42
2023/09/18 08:30:47;;;;;;;107.60;57.08;;;21.10;91.90;;;;;;5012094;27;91696;-42
2023/09/18 08:33:13;;;;;;;106.25;57.05;;;21.10;91.60;;;;;;5009002;27;89540;-42
2023/09/18 08:35:39;;;;;;;106.18;56.80;;;21.20;91.40;;;;;;5008246;27;90307;-42
2023/09/18 08:38:05;;;;;;;105.70;56.92;;;21.10;91.30;;;;;;5001091;27;90369;-44
2023/09/18 08:40:31;;;;;;;106.68;56.95;;;21.10;91.40;;;;;;5005929;27;89848;-43
2023/09/18 08:43:03;;;;;;;105.88;56.50;;;21.10;91.40;;;;;;5009288;27;90762;-42
2023/09/18 08:45:55;;;;;;;106.68;57.05;;;21.10;91.40;;;;;;5006031;27;89364;-43
2023/09/18 08:48:21;;;;;;;108.40;56.80;;;21.10;91.30;;;;;;5003589;27;90352;-44
2023/09/18 08:50:51;;;;;;;105.95;56.67;;;21.10;91.40;;;;;;5008161;27;89461;-43
2023/09/18 08:53:17;;;;;;;106.03;56.97;;;21.10;91.10;;;;;;5002989;27;90623;-46
2023/09/18 08:55:43;;;;;;;106.25;56.92;;;21.10;91.10;;;;;;5011416;27;88895;-43
2023/09/18 08:58:08;;;;;;;108.10;57.42;;;21.10;91.20;;;;;;5002287;27;89636;-43
2023/09/18 09:00:37;;;;;;;109.07;57.67;;;21.20;91.30;;;;;;5008423;27;89585;-43
2023/09/18 09:03:04;;;;;;;107.30;57.35;;;21.10;91.20;;;;;;4994681;27;91686;-43
2023/09/18 09:05:30;;;;;;;108.80;57.70;;;21.20;91.10;;;;;;5011609;27;89497;-44
2023/09/18 09:07:56;;;;;;;105.85;57.00;;;21.30;91.10;;;;;;5005644;27;89949;-44
2023/09/18 09:10:22;;;;;;;106.95;57.58;;;21.30;91.20;;;;;;5010891;27;90160;-43
2023/09/18 09:12:57;;;;;;;107.90;57.08;;;21.40;91.20;;;;;;4998244;27;93930;-43
2023/09/18 09:15:28;;;;;;;106.50;57.35;;;21.40;90.90;;;;;;5008240;27;89875;-43
2023/09/18 09:18:05;;;;;;;107.18;57.03;;;21.50;90.60;;;;;;5008369;27;91141;-43
2023/09/18 09:20:31;;;;;;;107.78;57.40;;;21.50;90.60;;;;;;5002921;27;90165;-42
2023/09/18 09:23:01;;;;;;;105.90;57.05;;;21.50;90.80;;;;;;5010631;27;89894;-44
2023/09/18 09:25:31;;;;;;;106.57;56.90;;;21.50;90.60;;;;;;5008875;27;90857;-43
2023/09/18 09:28:06;;;;;;;106.18;56.80;;;21.50;90.90;;;;;;5006210;27;90689;-45
2023/09/18 09:30:33;;;;;;;107.53;56.83;;;21.60;90.50;;;;;;5008488;27;90994;-43
2023/09/18 09:32:59;;;;;;;107.70;57.08;;;21.60;90.90;;;;;;5006245;27;90128;-43
2023/09/18 09:35:30;;;;;;;106.20;56.88;;;21.60;90.60;;;;;;5003711;27;89761;-43
2023/09/18 09:38:10;;;;;;;106.20;56.97;;;21.60;90.60;;;;;;5000457;27;89579;-42
2023/09/18 09:40:40;;;;;;;106.03;57.17;;;21.60;90.30;;;;;;5001715;27;89467;-43
2023/09/18 09:43:10;;;;;;;105.22;56.95;;;21.60;90.40;;;;;;5009464;27;89527;-44
2023/09/18 09:45:36;;;;;;;107.82;57.28;;;21.60;90.50;;;;;;5005277;27;91804;-43
2023/09/18 09:48:04;;;;;;;105.60;56.70;;;21.70;90.50;;;;;;5009188;27;89483;-43
2023/09/18 09:50:31;;;;;;;107.40;56.88;;;21.70;90.20;;;;;;5003513;27;90523;-42
2023/09/18 09:52:57;;;;;;;105.53;56.80;;;21.70;90.60;;;;;;5009727;27;93357;-43
2023/09/18 09:55:32;;;;;;;105.63;56.70;;;21.70;90.50;;;;;;5000938;27;89645;-43
2023/09/18 09:58:00;;;;;;;107.32;57.10;;;21.80;90.40;;;;;;5008288;27;90135;-43
2023/09/18 10:00:32;;;;;;;106.95;56.70;;;21.80;90.50;;;;;;5002704;27;90009;-43
2023/09/18 10:03:03;;;;;;;106.20;57.25;;;21.90;90.40;;;;;;5000359;27;89915;-43
2023/09/18 10:05:34;;;;;;;107.68;57.05;;;22.00;90.30;;;;;;5007639;27;89863;-42
2023/09/18 10:08:06;;;;;;;105.97;56.88;;;22.00;89.50;;;;;;5001393;27;89870;-43
2023/09/18 10:10:35;;;;;;;107.22;56.97;;;22.10;89.90;;;;;;5008650;27;89960;-43
2023/09/18 10:13:07;;;;;;;107.57;56.78;;;22.10;90.10;;;;;;5007559;27;92822;-42
2023/09/18 10:15:38;;;;;;;107.03;57.00;;;22.10;90.00;;;;;;5011003;27;90319;-43
2023/09/18 10:18:07;;;;;;;107.15;56.80;;;22.20;89.80;;;;;;5006648;27;92037;-43
2023/09/18 10:20:42;;;;;;;107.90;56.97;;;22.20;89.60;;;;;;4997868;27;90994;-43
2023/09/18 10:23:23;;;;;;;106.80;56.90;;;22.30;89.80;;;;;;5004533;27;91578;-45
2023/09/18 10:25:50;;;;;;;;;;;22.30;89.80;;;;;;5007746;27;90333;-44
2023/09/18 10:28:17;;;;;;;106.13;57.03;;;22.40;89.30;;;;;;5004099;27;90046;-42
2023/09/18 10:30:43;;;;;;;106.93;57.00;;;22.40;89.50;;;;;;5002223;27;92238;-42
2023/09/18 10:33:09;;;;;;;106.80;57.28;;;22.50;89.10;;;;;;5002457;27;90957;-42
2023/09/18 10:35:36;;;;;;;106.78;56.92;;;22.50;89.30;;;;;;5006792;27;89350;-42
2023/09/18 10:38:03;;;;;;;108.25;57.38;;;22.50;89.00;;;;;;5002755;27;93481;-44
2023/09/18 10:40:30;;;;;;;107.40;57.33;;;22.50;88.80;;;;;;5004969;27;91177;-43
2023/09/18 10:42:58;;;;;;;107.85;56.97;;;22.50;89.30;;;;;;5004812;27;90761;-42
2023/09/18 10:45:24;;;;;;;108.15;56.92;;;22.50;88.50;;;;;;5006391;27;90926;-43
2023/09/18 10:47:50;;;;;;;106.82;57.10;;;22.60;89.00;;;;;;5004790;27;89688;-43
2023/09/18 10:50:27;;;;;;;107.88;56.97;;;22.60;88.00;;;;;;5002005;27;89995;-43
2023/09/18 10:52:52;;;;;;;109.20;57.13;;;22.60;87.80;;;;;;5007412;27;91772;-44
2023/09/18 10:55:18;;;;;;;107.68;56.85;;;22.70;88.50;;;;;;5001951;27;89688;-44
2023/09/18 10:58:23;;;;;;;107.15;57.22;;;22.70;88.00;;;;;;5006170;27;89888;-45
2023/09/18 11:00:49;;;;;;;108.05;56.95;;;22.80;87.80;;;;;;5006810;27;89865;-43
2023/09/18 11:03:20;;;;;;;107.43;57.45;;;22.90;88.10;;;;;;5007139;27;89782;-43
2023/09/18 11:05:46;;;;;;;107.45;57.33;;;22.90;88.40;;;;;;5006843;27;89682;-43
2023/09/18 11:08:34;;;;;;;108.13;57.00;;;22.90;87.70;;;;;;4996071;27;92949;-45
2023/09/18 11:11:12;;;;;;;109.03;57.25;;;22.90;88.10;;;;;;5007102;27;91993;-44
2023/09/18 11:13:41;;;;;;;106.35;57.20;;;22.90;87.10;;;;;;5003327;27;94738;-43
2023/09/18 11:16:28;;;;;;;108.22;57.35;;;22.90;88.30;;;;;;5006787;27;89516;-43
2023/09/18 11:18:53;;;;;;;107.15;57.13;;;23.00;86.70;;;;;;4999211;27;92139;-44
2023/09/18 11:21:27;;;;;;;107.28;57.10;;;23.00;87.60;;;;;;5004155;27;90252;-43
2023/09/18 11:24:04;;;;;;;107.10;57.42;;;23.10;86.80;;;;;;5002840;27;90004;-42
2023/09/18 11:26:35;;;;;;;109.75;57.58;;;23.10;87.50;;;;;;4999928;27;89229;-42
2023/09/18 11:29:05;;;;;;;107.93;57.10;;;23.20;87.00;;;;;;5005092;27;90071;-43
2023/09/18 11:31:51;;;;;;;109.55;57.47;;;23.20;86.60;;;;;;5000543;27;90496;-42
2023/09/18 11:34:34;;;;;;;109.68;57.67;;;23.20;87.10;;;;;;5002941;27;91813;-42
2023/09/18 11:37:02;;;;;;;107.75;57.55;;;23.20;87.20;;;;;;5006479;27;89947;-43
2023/09/18 11:39:41;;;;;;;108.90;57.53;;;23.10;86.80;;;;;;4995914;27;90682;-43
2023/09/18 11:42:11;;;;;;;107.20;57.53;;;23.10;87.10;;;;;;5003979;27;92581;-42
2023/09/18 11:44:41;;;;;;;108.38;57.30;;;23.20;86.70;;;;;;5001436;27;90624;-42
2023/09/18 11:47:12;;;;;;;107.82;57.22;;;23.20;86.40;;;;;;4998224;27;92415;-42
2023/09/18 11:49:41;;;;;;;107.80;57.42;;;23.20;86.30;;;;;;5006115;27;90154;-42
2023/09/18 11:52:07;;;;;;;107.03;57.30;;;23.20;87.00;;;;;;5003961;27;91310;-44
2023/09/18 11:54:34;;;;;;;108.28;57.50;;;23.20;87.20;;;;;;5005862;27;90480;-42
2023/09/18 11:57:06;;;;;;;107.65;57.22;;;23.20;87.60;;;;;;5004402;27;90095;-42
2023/09/18 11:59:39;;;;;;;108.95;57.08;;;23.20;87.40;;;;;;5005411;27;90944;-43
2023/09/18 12:02:08;;;;;;;109.53;57.05;;;23.20;87.60;;;;;;5004769;27;89757;-42
2023/09/18 12:04:34;;;;;;;107.82;56.70;;;23.20;86.20;;;;;;5002603;27;91436;-43
2023/09/18 12:07:02;;;;;;;109.25;56.65;;;23.30;85.80;;;;;;5010272;27;89558;-42
2023/09/18 12:09:30;;;;;;;107.88;57.10;;;23.30;85.20;;;;;;5002677;27;89424;-49
2023/09/18 12:11:57;;;;;;;108.18;57.33;;;23.40;84.70;;;;;;5009012;27;89890;-44
2023/09/18 12:14:23;;;;;;;107.60;57.60;;;23.40;83.70;;;;;;5001930;27;90073;-43
2023/09/18 12:16:50;;;;;;;108.70;57.70;;;23.50;81.80;;;;;;5005511;27;89668;-43
2023/09/18 12:19:19;;;;;;;108.95;57.15;;;23.60;81.60;;;;;;5000048;27;89793;-44
2023/09/18 12:21:49;;;;;;;107.72;57.03;;;23.60;80.90;;;;;;4999751;27;91229;-43